Terminal Aerodrome Forecast
Issued by NWS Austin/San Antonio, TX

Home | Current Version | Previous Version | Text Only | Print | Product List | Glossary On
Versions: 1 2 3 4 5 6 7 8 9 10 11 12 13 14 15 16 17 18 19 20
000
FTUS44 KEWX 310700 AAA
TAFSAT
TAF AMD
KSAT 310701Z 3107/0112 02003KT P6SM BKN010
      TEMPO 3108/3111 4SM -SHRA BR SCT010 BKN035
     FM311100 01012G22KT P6SM SCT035 BKN060
     FM311500 02014G24KT P6SM SCT060
     FM010000 03007KT P6SM SKC=

USA.gov is the U.S. government's official web portal to all federal, state and local government web resources and services.